sensor_id;sensor_type;location;lat;lon;timestamp;temperature;humidity
32614;DHT22;19031;51.400;6.770;2022-10-31T00:00:41;13.70;99.90
32614;DHT22;19031;51.400;6.770;2022-10-31T00:03:06;13.60;99.90
32614;DHT22;19031;51.400;6.770;2022-10-31T00:05:32;13.40;99.90
32614;DHT22;19031;51.400;6.770;2022-10-31T00:07:58;13.40;99.90
32614;DHT22;19031;51.400;6.770;2022-10-31T00:10:23;13.50;99.90
32614;DHT22;19031;51.400;6.770;2022-10-31T00:12:49;13.40;99.90
32614;DHT22;19031;51.400;6.770;2022-10-31T00:15:14;13.30;99.90
32614;DHT22;19031;51.400;6.770;2022-10-31T00:17:40;13.20;99.90
32614;DHT22;19031;51.400;6.770;2022-10-31T00:20:06;13.20;99.90
32614;DHT22;19031;51.400;6.770;2022-10-31T00:22:31;13.20;99.90
32614;DHT22;19031;51.400;6.770;2022-10-31T00:24:57;13.10;99.90
32614;DHT22;19031;51.400;6.770;2022-10-31T00:27:22;13.10;99.90
32614;DHT22;19031;51.400;6.770;2022-10-31T00:29:48;13.00;99.90
32614;DHT22;19031;51.400;6.770;2022-10-31T00:32:13;13.10;99.90
32614;DHT22;19031;51.400;6.770;2022-10-31T00:34:39;13.00;99.90
32614;DHT22;19031;51.400;6.770;2022-10-31T00:37:04;13.00;99.90
32614;DHT22;19031;51.400;6.770;2022-10-31T00:39:30;13.00;99.90
32614;DHT22;19031;51.400;6.770;2022-10-31T00:41:56;12.90;99.90
32614;DHT22;19031;51.400;6.770;2022-10-31T00:44:21;13.00;99.90
32614;DHT22;19031;51.400;6.770;2022-10-31T00:46:47;13.00;99.90
32614;DHT22;19031;51.400;6.770;2022-10-31T00:49:12;12.90;99.90
32614;DHT22;19031;51.400;6.770;2022-10-31T00:51:38;13.00;99.90
32614;DHT22;19031;51.400;6.770;2022-10-31T00:54:03;13.00;99.90
32614;DHT22;19031;51.400;6.770;2022-10-31T00:56:29;13.00;99.90
32614;DHT22;19031;51.400;6.770;2022-10-31T00:58:55;13.00;99.90
32614;DHT22;19031;51.400;6.770;2022-10-31T01:01:20;13.00;99.90
32614;DHT22;19031;51.400;6.770;2022-10-31T01:03:46;13.20;99.90
32614;DHT22;19031;51.400;6.770;2022-10-31T01:06:13;13.10;99.90
32614;DHT22;19031;51.400;6.770;2022-10-31T01:08:39;13.10;99.90
32614;DHT22;19031;51.400;6.770;2022-10-31T01:11:12;13.10;99.90
32614;DHT22;19031;51.400;6.770;2022-10-31T01:13:38;13.10;99.90
32614;DHT22;19031;51.400;6.770;2022-10-31T01:16:05;13.10;99.90
32614;DHT22;19031;51.400;6.770;2022-10-31T01:18:31;13.10;99.90
32614;DHT22;19031;51.400;6.770;2022-10-31T01:23:31;13.10;99.90
32614;DHT22;19031;51.400;6.770;2022-10-31T01:31:40;13.00;99.90
32614;DHT22;19031;51.400;6.770;2022-10-31T01:34:06;12.90;99.90
32614;DHT22;19031;51.400;6.770;2022-10-31T01:36:35;13.00;99.90
32614;DHT22;19031;51.400;6.770;2022-10-31T01:39:05;12.90;99.90
32614;DHT22;19031;51.400;6.770;2022-10-31T01:41:32;12.80;99.90
32614;DHT22;19031;51.400;6.770;2022-10-31T01:44:01;12.80;99.90
32614;DHT22;19031;51.400;6.770;2022-10-31T01:46:36;12.60;99.90
32614;DHT22;19031;51.400;6.770;2022-10-31T01:49:09;12.70;99.90
32614;DHT22;19031;51.400;6.770;2022-10-31T01:51:42;12.70;99.90
32614;DHT22;19031;51.400;6.770;2022-10-31T01:54:13;12.60;99.90
32614;DHT22;19031;51.400;6.770;2022-10-31T01:56:46;12.50;99.90
32614;DHT22;19031;51.400;6.770;2022-10-31T01:59:15;12.50;99.90
32614;DHT22;19031;51.400;6.770;2022-10-31T02:01:42;12.40;99.90
32614;DHT22;19031;51.400;6.770;2022-10-31T02:04:08;12.30;99.90
32614;DHT22;19031;51.400;6.770;2022-10-31T02:07:03;12.30;99.90
32614;DHT22;19031;51.400;6.770;2022-10-31T02:09:31;12.30;99.90
32614;DHT22;19031;51.400;6.770;2022-10-31T02:11:59;12.40;99.90
32614;DHT22;19031;51.400;6.770;2022-10-31T02:14:27;12.30;99.90
32614;DHT22;19031;51.400;6.770;2022-10-31T02:16:54;12.20;99.90
32614;DHT22;19031;51.400;6.770;2022-10-31T02:22:16;12.20;99.90
32614;DHT22;19031;51.400;6.770;2022-10-31T02:36:00;12.30;99.90
32614;DHT22;19031;51.400;6.770;2022-10-31T02:41:20;12.20;99.90
32614;DHT22;19031;51.400;6.770;2022-10-31T02:43:58;12.20;99.90
32614;DHT22;19031;51.400;6.770;2022-10-31T02:46:38;12.40;99.90
32614;DHT22;19031;51.400;6.770;2022-10-31T02:49:21;12.10;99.90
32614;DHT22;19031;51.400;6.770;2022-10-31T02:51:48;12.50;99.90
32614;DHT22;19031;51.400;6.770;2022-10-31T02:54:23;12.50;99.90
32614;DHT22;19031;51.400;6.770;2022-10-31T02:56:51;12.10;99.90
32614;DHT22;19031;51.400;6.770;2022-10-31T02:59:17;12.00;99.90
32614;DHT22;19031;51.400;6.770;2022-10-31T03:02:15;12.10;99.90
32614;DHT22;19031;51.400;6.770;2022-10-31T03:05:02;12.00;99.90
32614;DHT22;19031;51.400;6.770;2022-10-31T03:08:10;11.90;99.90
32614;DHT22;19031;51.400;6.770;2022-10-31T03:10:48;11.60;99.90
32614;DHT22;19031;51.400;6.770;2022-10-31T03:13:52;11.80;99.90
32614;DHT22;19031;51.400;6.770;2022-10-31T03:16:36;11.80;99.90
32614;DHT22;19031;51.400;6.770;2022-10-31T03:19:06;11.70;99.90
32614;DHT22;19031;51.400;6.770;2022-10-31T03:21:47;11.60;99.90
32614;DHT22;19031;51.400;6.770;2022-10-31T03:24:15;11.60;99.90
32614;DHT22;19031;51.400;6.770;2022-10-31T03:26:47;12.00;99.90
32614;DHT22;19031;51.400;6.770;2022-10-31T03:29:15;12.00;99.90
32614;DHT22;19031;51.400;6.770;2022-10-31T03:31:53;11.50;99.90
32614;DHT22;19031;51.400;6.770;2022-10-31T03:34:20;11.40;99.90
32614;DHT22;19031;51.400;6.770;2022-10-31T03:36:49;11.40;99.90
32614;DHT22;19031;51.400;6.770;2022-10-31T03:39:17;11.30;99.90
32614;DHT22;19031;51.400;6.770;2022-10-31T03:41:52;11.30;99.90
32614;DHT22;19031;51.400;6.770;2022-10-31T03:44:21;11.30;99.90
32614;DHT22;19031;51.400;6.770;2022-10-31T03:46:47;11.90;99.90
32614;DHT22;19031;51.400;6.770;2022-10-31T03:49:14;11.30;99.90
32614;DHT22;19031;51.400;6.770;2022-10-31T03:54:34;11.30;99.90
32614;DHT22;19031;51.400;6.770;2022-10-31T04:02:35;11.30;99.90
32614;DHT22;19031;51.400;6.770;2022-10-31T04:05:04;11.50;99.90
32614;DHT22;19031;51.400;6.770;2022-10-31T04:07:34;11.30;99.90
32614;DHT22;19031;51.400;6.770;2022-10-31T04:10:04;11.90;99.90
32614;DHT22;19031;51.400;6.770;2022-10-31T04:12:32;11.30;99.90
32614;DHT22;19031;51.400;6.770;2022-10-31T04:15:02;11.40;99.90
32614;DHT22;19031;51.400;6.770;2022-10-31T04:17:31;11.50;99.90
32614;DHT22;19031;51.400;6.770;2022-10-31T04:20:01;11.50;99.90
32614;DHT22;19031;51.400;6.770;2022-10-31T04:22:27;11.40;99.90
32614;DHT22;19031;51.400;6.770;2022-10-31T04:24:52;12.10;99.90
32614;DHT22;19031;51.400;6.770;2022-10-31T04:27:18;11.40;99.90
32614;DHT22;19031;51.400;6.770;2022-10-31T04:29:44;11.60;99.90
32614;DHT22;19031;51.400;6.770;2022-10-31T04:32:09;12.20;99.90
32614;DHT22;19031;51.400;6.770;2022-10-31T04:34:35;11.80;99.90
32614;DHT22;19031;51.400;6.770;2022-10-31T04:37:00;12.30;99.90
32614;DHT22;19031;51.400;6.770;2022-10-31T04:39:26;11.30;99.90
32614;DHT22;19031;51.400;6.770;2022-10-31T04:41:51;11.40;99.90
32614;DHT22;19031;51.400;6.770;2022-10-31T04:44:17;11.60;99.90
32614;DHT22;19031;51.400;6.770;2022-10-31T04:46:43;11.50;99.90
32614;DHT22;19031;51.400;6.770;2022-10-31T04:49:08;11.70;99.90
32614;DHT22;19031;51.400;6.770;2022-10-31T04:51:34;11.60;99.90
32614;DHT22;19031;51.400;6.770;2022-10-31T04:53:59;11.60;99.90
32614;DHT22;19031;51.400;6.770;2022-10-31T04:56:25;11.60;99.90
32614;DHT22;19031;51.400;6.770;2022-10-31T04:58:51;11.60;99.90
32614;DHT22;19031;51.400;6.770;2022-10-31T05:01:16;11.50;99.90
32614;DHT22;19031;51.400;6.770;2022-10-31T05:03:42;11.50;99.90
32614;DHT22;19031;51.400;6.770;2022-10-31T05:06:07;11.40;99.90
32614;DHT22;19031;51.400;6.770;2022-10-31T05:08:33;11.50;99.90
32614;DHT22;19031;51.400;6.770;2022-10-31T05:11:00;11.50;99.90
32614;DHT22;19031;51.400;6.770;2022-10-31T05:13:27;11.40;99.90
32614;DHT22;19031;51.400;6.770;2022-10-31T05:15:52;11.40;99.90
32614;DHT22;19031;51.400;6.770;2022-10-31T05:18:18;11.30;99.90
32614;DHT22;19031;51.400;6.770;2022-10-31T05:20:43;11.40;99.90
32614;DHT22;19031;51.400;6.770;2022-10-31T05:23:09;11.40;99.90
32614;DHT22;19031;51.400;6.770;2022-10-31T05:25:35;11.50;99.90
32614;DHT22;19031;51.400;6.770;2022-10-31T05:28:00;11.40;99.90
32614;DHT22;19031;51.400;6.770;2022-10-31T05:30:28;11.40;99.90
32614;DHT22;19031;51.400;6.770;2022-10-31T05:32:55;11.30;99.90
32614;DHT22;19031;51.400;6.770;2022-10-31T05:35:29;11.40;99.90
32614;DHT22;19031;51.400;6.770;2022-10-31T05:37:56;11.40;99.90
32614;DHT22;19031;51.400;6.770;2022-10-31T05:40:24;11.30;99.90
32614;DHT22;19031;51.400;6.770;2022-10-31T05:42:54;11.30;99.90
32614;DHT22;19031;51.400;6.770;2022-10-31T05:45:21;11.40;99.90
32614;DHT22;19031;51.400;6.770;2022-10-31T05:47:54;11.30;99.90
32614;DHT22;19031;51.400;6.770;2022-10-31T05:50:21;11.30;99.90
32614;DHT22;19031;51.400;6.770;2022-10-31T05:52:54;11.30;99.90
32614;DHT22;19031;51.400;6.770;2022-10-31T05:55:20;11.30;99.90
32614;DHT22;19031;51.400;6.770;2022-10-31T05:57:46;11.30;99.90
32614;DHT22;19031;51.400;6.770;2022-10-31T06:00:12;11.30;99.90
32614;DHT22;19031;51.400;6.770;2022-10-31T06:02:37;11.20;99.90
32614;DHT22;19031;51.400;6.770;2022-10-31T06:05:03;11.30;99.90
32614;DHT22;19031;51.400;6.770;2022-10-31T06:07:33;11.30;99.90
32614;DHT22;19031;51.400;6.770;2022-10-31T06:09:59;11.40;99.90
32614;DHT22;19031;51.400;6.770;2022-10-31T06:12:25;11.20;99.90
32614;DHT22;19031;51.400;6.770;2022-10-31T06:14:51;11.30;99.90
32614;DHT22;19031;51.400;6.770;2022-10-31T06:17:17;11.30;99.90
32614;DHT22;19031;51.400;6.770;2022-10-31T06:19:42;11.20;99.90
32614;DHT22;19031;51.400;6.770;2022-10-31T06:22:08;11.20;99.90
32614;DHT22;19031;51.400;6.770;2022-10-31T06:24:33;11.20;99.90
32614;DHT22;19031;51.400;6.770;2022-10-31T06:26:59;11.30;99.90
32614;DHT22;19031;51.400;6.770;2022-10-31T06:29:24;11.30;99.90
32614;DHT22;19031;51.400;6.770;2022-10-31T06:31:53;11.30;99.90
32614;DHT22;19031;51.400;6.770;2022-10-31T06:34:19;11.20;99.90
32614;DHT22;19031;51.400;6.770;2022-10-31T06:36:46;11.20;99.90
32614;DHT22;19031;51.400;6.770;2022-10-31T06:39:11;11.10;99.90
32614;DHT22;19031;51.400;6.770;2022-10-31T06:41:37;11.20;99.90
32614;DHT22;19031;51.400;6.770;2022-10-31T06:44:05;11.10;99.90
32614;DHT22;19031;51.400;6.770;2022-10-31T06:46:31;11.10;99.90
32614;DHT22;19031;51.400;6.770;2022-10-31T06:48:56;11.10;99.90
32614;DHT22;19031;51.400;6.770;2022-10-31T06:51:22;11.20;99.90
32614;DHT22;19031;51.400;6.770;2022-10-31T06:53:47;11.20;99.90
32614;DHT22;19031;51.400;6.770;2022-10-31T06:56:13;11.20;99.90
32614;DHT22;19031;51.400;6.770;2022-10-31T06:58:39;11.20;99.90
32614;DHT22;19031;51.400;6.770;2022-10-31T07:01:04;11.20;99.90
32614;DHT22;19031;51.400;6.770;2022-10-31T07:03:30;11.30;99.90
32614;DHT22;19031;51.400;6.770;2022-10-31T07:05:56;11.40;99.90
32614;DHT22;19031;51.400;6.770;2022-10-31T07:08:24;11.30;99.90
32614;DHT22;19031;51.400;6.770;2022-10-31T07:10:55;11.30;99.90
32614;DHT22;19031;51.400;6.770;2022-10-31T07:13:21;11.40;99.90
32614;DHT22;19031;51.400;6.770;2022-10-31T07:15:52;11.40;99.90
32614;DHT22;19031;51.400;6.770;2022-10-31T07:18:19;11.30;99.90
32614;DHT22;19031;51.400;6.770;2022-10-31T07:20:45;11.30;99.90
32614;DHT22;19031;51.400;6.770;2022-10-31T07:23:10;11.30;99.90
32614;DHT22;19031;51.400;6.770;2022-10-31T07:25:37;11.40;99.90
32614;DHT22;19031;51.400;6.770;2022-10-31T07:28:03;11.40;99.90
32614;DHT22;19031;51.400;6.770;2022-10-31T07:30:28;11.40;99.90
32614;DHT22;19031;51.400;6.770;2022-10-31T07:32:54;11.50;99.90
32614;DHT22;19031;51.400;6.770;2022-10-31T07:35:26;11.50;99.90
32614;DHT22;19031;51.400;6.770;2022-10-31T07:38:05;11.60;99.90
32614;DHT22;19031;51.400;6.770;2022-10-31T07:40:31;11.60;99.90
32614;DHT22;19031;51.400;6.770;2022-10-31T07:42:57;11.60;99.90
32614;DHT22;19031;51.400;6.770;2022-10-31T07:45:26;11.60;99.90
32614;DHT22;19031;51.400;6.770;2022-10-31T07:47:52;11.70;99.90
32614;DHT22;19031;51.400;6.770;2022-10-31T07:50:20;11.80;99.90
32614;DHT22;19031;51.400;6.770;2022-10-31T07:52:47;11.80;99.90
32614;DHT22;19031;51.400;6.770;2022-10-31T07:55:14;11.70;99.90
32614;DHT22;19031;51.400;6.770;2022-10-31T07:57:40;11.90;99.90
32614;DHT22;19031;51.400;6.770;2022-10-31T08:00:08;12.00;99.90
32614;DHT22;19031;51.400;6.770;2022-10-31T08:02:38;12.10;99.90
32614;DHT22;19031;51.400;6.770;2022-10-31T08:05:04;12.10;99.90
32614;DHT22;19031;51.400;6.770;2022-10-31T08:07:29;12.20;99.90
32614;DHT22;19031;51.400;6.770;2022-10-31T08:10:01;12.30;99.90
32614;DHT22;19031;51.400;6.770;2022-10-31T08:12:27;12.30;99.90
32614;DHT22;19031;51.400;6.770;2022-10-31T08:14:53;12.40;99.90
32614;DHT22;19031;51.400;6.770;2022-10-31T08:17:21;12.60;99.90
32614;DHT22;19031;51.400;6.770;2022-10-31T08:19:47;12.90;99.90
32614;DHT22;19031;51.400;6.770;2022-10-31T08:22:12;12.70;99.90
32614;DHT22;19031;51.400;6.770;2022-10-31T08:24:38;12.90;99.90
32614;DHT22;19031;51.400;6.770;2022-10-31T08:27:03;13.00;99.90
32614;DHT22;19031;51.400;6.770;2022-10-31T08:29:29;13.10;99.90
32614;DHT22;19031;51.400;6.770;2022-10-31T08:31:55;13.20;99.90
32614;DHT22;19031;51.400;6.770;2022-10-31T08:34:22;13.30;99.90
32614;DHT22;19031;51.400;6.770;2022-10-31T08:36:48;13.50;99.90
32614;DHT22;19031;51.400;6.770;2022-10-31T08:39:13;13.50;99.90
32614;DHT22;19031;51.400;6.770;2022-10-31T08:41:39;13.70;99.90
32614;DHT22;19031;51.400;6.770;2022-10-31T08:44:04;13.70;99.90
32614;DHT22;19031;51.400;6.770;2022-10-31T08:46:30;13.70;99.90
32614;DHT22;19031;51.400;6.770;2022-10-31T08:48:56;13.90;99.90
32614;DHT22;19031;51.400;6.770;2022-10-31T08:51:22;14.00;99.90
32614;DHT22;19031;51.400;6.770;2022-10-31T08:53:51;14.10;99.90
32614;DHT22;19031;51.400;6.770;2022-10-31T08:56:22;14.10;99.90
32614;DHT22;19031;51.400;6.770;2022-10-31T08:58:48;14.10;99.90
32614;DHT22;19031;51.400;6.770;2022-10-31T09:01:14;14.20;99.90
32614;DHT22;19031;51.400;6.770;2022-10-31T09:03:42;14.30;99.90
32614;DHT22;19031;51.400;6.770;2022-10-31T09:06:11;14.30;99.90
32614;DHT22;19031;51.400;6.770;2022-10-31T09:08:37;14.40;99.90
32614;DHT22;19031;51.400;6.770;2022-10-31T09:11:03;14.40;99.90
32614;DHT22;19031;51.400;6.770;2022-10-31T09:13:32;14.50;99.90
32614;DHT22;19031;51.400;6.770;2022-10-31T09:16:00;14.60;99.90
32614;DHT22;19031;51.400;6.770;2022-10-31T09:18:26;14.60;99.90
32614;DHT22;19031;51.400;6.770;2022-10-31T09:20:57;14.80;99.90
32614;DHT22;19031;51.400;6.770;2022-10-31T09:23:31;14.90;99.90
32614;DHT22;19031;51.400;6.770;2022-10-31T09:26:00;14.90;99.90
32614;DHT22;19031;51.400;6.770;2022-10-31T09:28:26;14.90;99.90
32614;DHT22;19031;51.400;6.770;2022-10-31T09:30:53;15.00;99.90
32614;DHT22;19031;51.400;6.770;2022-10-31T09:33:25;15.00;99.90
32614;DHT22;19031;51.400;6.770;2022-10-31T09:35:53;15.10;99.90
32614;DHT22;19031;51.400;6.770;2022-10-31T09:38:20;15.20;99.90
32614;DHT22;19031;51.400;6.770;2022-10-31T09:41:07;15.20;99.90
32614;DHT22;19031;51.400;6.770;2022-10-31T09:47:24;15.50;99.90
32614;DHT22;19031;51.400;6.770;2022-10-31T09:50:02;15.50;99.90
32614;DHT22;19031;51.400;6.770;2022-10-31T09:52:43;15.60;99.90
32614;DHT22;19031;51.400;6.770;2022-10-31T09:55:23;15.80;99.90
32614;DHT22;19031;51.400;6.770;2022-10-31T09:57:54;15.90;99.90
32614;DHT22;19031;51.400;6.770;2022-10-31T10:00:21;16.00;99.90
32614;DHT22;19031;51.400;6.770;2022-10-31T10:03:05;16.20;99.90
32614;DHT22;19031;51.400;6.770;2022-10-31T10:05:39;16.60;99.90
32614;DHT22;19031;51.400;6.770;2022-10-31T10:08:23;16.90;99.90
32614;DHT22;19031;51.400;6.770;2022-10-31T10:17:00;20.10;97.40
32614;DHT22;19031;51.400;6.770;2022-10-31T10:20:10;21.20;54.80
32614;DHT22;19031;51.400;6.770;2022-10-31T10:25:40;21.70;7.20
32614;DHT22;19031;51.400;6.770;2022-10-31T10:31:07;20.70;28.50
32614;DHT22;19031;51.400;6.770;2022-10-31T10:39:18;20.10;48.80
32614;DHT22;19031;51.400;6.770;2022-10-31T10:41:55;19.90;61.10
32614;DHT22;19031;51.400;6.770;2022-10-31T10:44:47;19.60;67.20
32614;DHT22;19031;51.400;6.770;2022-10-31T10:47:52;19.70;63.90
32614;DHT22;19031;51.400;6.770;2022-10-31T10:50:30;19.30;71.10
32614;DHT22;19031;51.400;6.770;2022-10-31T10:58:41;19.10;75.70
32614;DHT22;19031;51.400;6.770;2022-10-31T11:01:13;19.20;74.30
32614;DHT22;19031;51.400;6.770;2022-10-31T11:03:46;19.30;73.00
32614;DHT22;19031;51.400;6.770;2022-10-31T11:06:21;19.30;72.40
32614;DHT22;19031;51.400;6.770;2022-10-31T11:09:14;19.10;72.00
32614;DHT22;19031;51.400;6.770;2022-10-31T11:11:52;19.10;74.10
32614;DHT22;19031;51.400;6.770;2022-10-31T11:14:19;19.30;77.50
32614;DHT22;19031;51.400;6.770;2022-10-31T11:16:49;19.30;77.30
32614;DHT22;19031;51.400;6.770;2022-10-31T11:19:25;19.10;78.30
32614;DHT22;19031;51.400;6.770;2022-10-31T11:22:17;19.20;77.10
32614;DHT22;19031;51.400;6.770;2022-10-31T11:24:43;19.40;71.50
32614;DHT22;19031;51.400;6.770;2022-10-31T11:27:21;19.50;76.90
32614;DHT22;19031;51.400;6.770;2022-10-31T11:29:46;19.60;72.20
32614;DHT22;19031;51.400;6.770;2022-10-31T11:32:35;19.60;68.50
32614;DHT22;19031;51.400;6.770;2022-10-31T11:35:07;19.80;70.10
32614;DHT22;19031;51.400;6.770;2022-10-31T11:37:35;19.80;66.60
32614;DHT22;19031;51.400;6.770;2022-10-31T11:40:06;19.80;61.50
32614;DHT22;19031;51.400;6.770;2022-10-31T11:42:40;19.80;57.60
32614;DHT22;19031;51.400;6.770;2022-10-31T11:45:33;19.90;61.80
32614;DHT22;19031;51.400;6.770;2022-10-31T11:48:01;20.00;55.70
32614;DHT22;19031;51.400;6.770;2022-10-31T11:50:39;19.90;49.00
32614;DHT22;19031;51.400;6.770;2022-10-31T11:53:18;20.00;56.30
32614;DHT22;19031;51.400;6.770;2022-10-31T11:55:45;20.10;48.20
32614;DHT22;19031;51.400;6.770;2022-10-31T11:58:22;20.20;49.70
32614;DHT22;19031;51.400;6.770;2022-10-31T12:00:54;20.30;42.20
32614;DHT22;19031;51.400;6.770;2022-10-31T12:06:13;20.20;45.20
32614;DHT22;19031;51.400;6.770;2022-10-31T12:08:41;20.30;47.90
32614;DHT22;19031;51.400;6.770;2022-10-31T12:16:34;20.50;44.80
32614;DHT22;19031;51.400;6.770;2022-10-31T12:19:36;20.70;29.10
32614;DHT22;19031;51.400;6.770;2022-10-31T12:25:19;20.90;17.40
32614;DHT22;19031;51.400;6.770;2022-10-31T12:31:06;21.20;1.00
32614;DHT22;19031;51.400;6.770;2022-10-31T12:39:18;21.40;1.80
32614;DHT22;19031;51.400;6.770;2022-10-31T12:58:36;21.40;1.00
32614;DHT22;19031;51.400;6.770;2022-10-31T13:01:16;21.40;1.00
32614;DHT22;19031;51.400;6.770;2022-10-31T13:04:05;21.30;1.00
32614;DHT22;19031;51.400;6.770;2022-10-31T13:06:53;21.20;1.00
32614;DHT22;19031;51.400;6.770;2022-10-31T13:09:27;21.10;1.00
32614;DHT22;19031;51.400;6.770;2022-10-31T13:12:08;21.00;1.00
32614;DHT22;19031;51.400;6.770;2022-10-31T13:14:45;21.00;1.00
32614;DHT22;19031;51.400;6.770;2022-10-31T13:17:31;21.00;1.00
32614;DHT22;19031;51.400;6.770;2022-10-31T13:22:46;21.00;1.00
32614;DHT22;19031;51.400;6.770;2022-10-31T13:28:20;20.80;1.00
32614;DHT22;19031;51.400;6.770;2022-10-31T13:30:48;20.60;1.00
32614;DHT22;19031;51.400;6.770;2022-10-31T13:38:48;20.50;1.00
32614;DHT22;19031;51.400;6.770;2022-10-31T13:44:35;20.40;1.00
32614;DHT22;19031;51.400;6.770;2022-10-31T13:47:03;20.30;1.00
32614;DHT22;19031;51.400;6.770;2022-10-31T13:52:21;20.40;1.00
32614;DHT22;19031;51.400;6.770;2022-10-31T13:54:49;20.40;1.00
32614;DHT22;19031;51.400;6.770;2022-10-31T13:57:37;20.40;1.00
32614;DHT22;19031;51.400;6.770;2022-10-31T14:02:48;20.30;1.00
32614;DHT22;19031;51.400;6.770;2022-10-31T14:07:52;20.40;1.00
32614;DHT22;19031;51.400;6.770;2022-10-31T14:10:28;20.40;1.00
32614;DHT22;19031;51.400;6.770;2022-10-31T14:15:55;20.40;1.00
32614;DHT22;19031;51.400;6.770;2022-10-31T14:20:49;20.40;1.00
32614;DHT22;19031;51.400;6.770;2022-10-31T14:28:43;20.20;1.00
32614;DHT22;19031;51.400;6.770;2022-10-31T14:31:37;20.20;1.00
32614;DHT22;19031;51.400;6.770;2022-10-31T14:34:27;20.20;1.00
32614;DHT22;19031;51.400;6.770;2022-10-31T14:50:50;19.90;1.00
32614;DHT22;19031;51.400;6.770;2022-10-31T14:53:29;19.90;1.00
32614;DHT22;19031;51.400;6.770;2022-10-31T14:55:57;19.80;1.00
32614;DHT22;19031;51.400;6.770;2022-10-31T14:58:38;19.70;1.00
32614;DHT22;19031;51.400;6.770;2022-10-31T15:01:05;19.70;1.00
32614;DHT22;19031;51.400;6.770;2022-10-31T15:03:37;19.70;1.00
32614;DHT22;19031;51.400;6.770;2022-10-31T15:06:11;19.70;1.00
32614;DHT22;19031;51.400;6.770;2022-10-31T15:08:48;19.70;1.00
32614;DHT22;19031;51.400;6.770;2022-10-31T15:11:20;19.60;1.00
32614;DHT22;19031;51.400;6.770;2022-10-31T15:13:48;19.50;1.00
32614;DHT22;19031;51.400;6.770;2022-10-31T15:16:18;19.40;1.00
32614;DHT22;19031;51.400;6.770;2022-10-31T15:19:05;19.30;1.00
32614;DHT22;19031;51.400;6.770;2022-10-31T15:21:33;19.20;1.00
32614;DHT22;19031;51.400;6.770;2022-10-31T15:24:00;19.10;5.10
32614;DHT22;19031;51.400;6.770;2022-10-31T15:26:32;19.10;4.40
32614;DHT22;19031;51.400;6.770;2022-10-31T15:29:03;19.00;1.00
32614;DHT22;19031;51.400;6.770;2022-10-31T15:31:30;19.00;4.30
32614;DHT22;19031;51.400;6.770;2022-10-31T15:34:03;19.00;1.00
32614;DHT22;19031;51.400;6.770;2022-10-31T15:36:29;18.90;5.90
32614;DHT22;19031;51.400;6.770;2022-10-31T15:38:56;18.80;17.50
32614;DHT22;19031;51.400;6.770;2022-10-31T15:41:35;18.70;11.10
32614;DHT22;19031;51.400;6.770;2022-10-31T15:44:12;18.70;10.20
32614;DHT22;19031;51.400;6.770;2022-10-31T15:46:40;18.60;16.40
32614;DHT22;19031;51.400;6.770;2022-10-31T15:49:18;18.50;24.20
32614;DHT22;19031;51.400;6.770;2022-10-31T15:51:47;18.50;24.30
32614;DHT22;19031;51.400;6.770;2022-10-31T15:54:13;18.20;27.10
32614;DHT22;19031;51.400;6.770;2022-10-31T15:56:39;18.10;29.20
32614;DHT22;19031;51.400;6.770;2022-10-31T15:59:17;18.10;32.60
32614;DHT22;19031;51.400;6.770;2022-10-31T16:02:03;18.00;40.50
32614;DHT22;19031;51.400;6.770;2022-10-31T16:04:33;17.90;45.70
32614;DHT22;19031;51.400;6.770;2022-10-31T16:07:01;17.80;48.10
32614;DHT22;19031;51.400;6.770;2022-10-31T16:09:28;17.70;51.50
32614;DHT22;19031;51.400;6.770;2022-10-31T16:11:56;17.50;54.50
32614;DHT22;19031;51.400;6.770;2022-10-31T16:14:24;17.40;59.30
32614;DHT22;19031;51.400;6.770;2022-10-31T16:16:52;17.30;62.20
32614;DHT22;19031;51.400;6.770;2022-10-31T16:21:54;17.30;69.30
32614;DHT22;19031;51.400;6.770;2022-10-31T16:24:24;17.20;71.10
32614;DHT22;19031;51.400;6.770;2022-10-31T16:26:52;17.20;76.60
32614;DHT22;19031;51.400;6.770;2022-10-31T16:29:31;17.10;77.70
32614;DHT22;19031;51.400;6.770;2022-10-31T16:31:57;17.10;77.70
32614;DHT22;19031;51.400;6.770;2022-10-31T16:34:23;17.00;78.60
32614;DHT22;19031;51.400;6.770;2022-10-31T16:36:49;16.90;81.20
32614;DHT22;19031;51.400;6.770;2022-10-31T16:39:15;16.80;83.40
32614;DHT22;19031;51.400;6.770;2022-10-31T16:41:47;16.80;86.40
32614;DHT22;19031;51.400;6.770;2022-10-31T16:44:18;16.80;86.00
32614;DHT22;19031;51.400;6.770;2022-10-31T16:46:44;16.90;86.70
32614;DHT22;19031;51.400;6.770;2022-10-31T16:49:11;16.80;88.60
32614;DHT22;19031;51.400;6.770;2022-10-31T16:51:37;16.70;90.20
32614;DHT22;19031;51.400;6.770;2022-10-31T16:54:02;16.70;90.70
32614;DHT22;19031;51.400;6.770;2022-10-31T16:56:30;16.50;91.10
32614;DHT22;19031;51.400;6.770;2022-10-31T16:58:57;16.50;92.10
32614;DHT22;19031;51.400;6.770;2022-10-31T17:01:23;16.40;92.40
32614;DHT22;19031;51.400;6.770;2022-10-31T17:03:48;16.30;92.50
32614;DHT22;19031;51.400;6.770;2022-10-31T17:06:14;16.30;93.40
32614;DHT22;19031;51.400;6.770;2022-10-31T17:08:40;16.20;95.00
32614;DHT22;19031;51.400;6.770;2022-10-31T17:11:11;16.30;95.30
32614;DHT22;19031;51.400;6.770;2022-10-31T17:13:39;16.20;95.30
32614;DHT22;19031;51.400;6.770;2022-10-31T17:16:05;16.20;95.90
32614;DHT22;19031;51.400;6.770;2022-10-31T17:18:31;16.10;96.50
32614;DHT22;19031;51.400;6.770;2022-10-31T17:20:58;16.00;96.50
32614;DHT22;19031;51.400;6.770;2022-10-31T17:23:24;15.90;96.70
32614;DHT22;19031;51.400;6.770;2022-10-31T17:25:50;15.90;96.60
32614;DHT22;19031;51.400;6.770;2022-10-31T17:28:16;15.90;96.00
32614;DHT22;19031;51.400;6.770;2022-10-31T17:30:42;15.90;94.90
32614;DHT22;19031;51.400;6.770;2022-10-31T17:33:12;15.80;94.90
32614;DHT22;19031;51.400;6.770;2022-10-31T17:35:39;15.80;95.80
32614;DHT22;19031;51.400;6.770;2022-10-31T17:38:05;15.70;95.50
32614;DHT22;19031;51.400;6.770;2022-10-31T17:40:31;15.70;94.80
32614;DHT22;19031;51.400;6.770;2022-10-31T17:42:56;15.70;93.80
32614;DHT22;19031;51.400;6.770;2022-10-31T17:45:24;15.70;93.70
32614;DHT22;19031;51.400;6.770;2022-10-31T17:47:51;15.80;93.80
32614;DHT22;19031;51.400;6.770;2022-10-31T17:50:18;15.70;93.50
32614;DHT22;19031;51.400;6.770;2022-10-31T17:52:44;15.70;93.40
32614;DHT22;19031;51.400;6.770;2022-10-31T17:55:11;15.70;94.00
32614;DHT22;19031;51.400;6.770;2022-10-31T17:57:36;15.60;93.40
32614;DHT22;19031;51.400;6.770;2022-10-31T18:00:04;15.60;92.20
32614;DHT22;19031;51.400;6.770;2022-10-31T18:02:30;15.60;88.40
32614;DHT22;19031;51.400;6.770;2022-10-31T18:04:56;15.60;83.70
32614;DHT22;19031;51.400;6.770;2022-10-31T18:07:21;15.60;78.40
32614;DHT22;19031;51.400;6.770;2022-10-31T18:09:47;15.70;63.60
32614;DHT22;19031;51.400;6.770;2022-10-31T18:12:14;15.90;52.70
32614;DHT22;19031;51.400;6.770;2022-10-31T18:14:40;16.00;43.10
32614;DHT22;19031;51.400;6.770;2022-10-31T18:17:06;16.10;39.40